createdAt,value
2023-03-31T00:01:10.046Z,101014.81
2023-03-31T00:03:44.742Z,101007.00
2023-03-31T00:06:19.149Z,101000.94
2023-03-31T00:08:52.612Z,101015.19
2023-03-31T00:11:23.335Z,101002.78
2023-03-31T00:13:51.225Z,101007.72
2023-03-31T00:16:19.544Z,101000.56
2023-03-31T00:18:47.873Z,100987.06
2023-03-31T00:21:25.405Z,100996.97
2023-03-31T00:23:55.640Z,100982.34
2023-03-31T00:26:24.179Z,100975.63
2023-03-31T00:28:53.551Z,100972.50
2023-03-31T00:31:22.852Z,100968.84
2023-03-31T00:33:51.282Z,100974.41
2023-03-31T00:36:27.381Z,100971.72
2023-03-31T00:39:02.725Z,100971.91
2023-03-31T00:41:30.948Z,100965.88
2023-03-31T00:44:24.807Z,100958.56
2023-03-31T00:46:58.805Z,100959.44
2023-03-31T00:49:34.486Z,100953.00
2023-03-31T00:52:11.062Z,100950.94
2023-03-31T00:54:40.940Z,100947.41
2023-03-31T00:57:10.425Z,100943.41
2023-03-31T00:59:43.217Z,100947.63
2023-03-31T01:02:14.328Z,100945.16
2023-03-31T01:04:47.365Z,100925.25
2023-03-31T01:07:30.648Z,100939.09
2023-03-31T01:10:01.933Z,100941.97
2023-03-31T01:12:32.291Z,100936.44
2023-03-31T01:15:01.821Z,100924.16
2023-03-31T01:17:30.752Z,100920.63
2023-03-31T01:20:02.059Z,100920.22
2023-03-31T01:23:16.480Z,100912.63
2023-03-31T01:26:03.487Z,100902.75
2023-03-31T01:28:49.751Z,100903.47
2023-03-31T01:31:40.541Z,100906.25
2023-03-31T01:34:34.889Z,100905.03
2023-03-31T01:37:16.160Z,100901.66
2023-03-31T01:40:24.196Z,100910.88
2023-03-31T01:43:08.013Z,100913.69
2023-03-31T01:45:45.678Z,100912.22
2023-03-31T01:48:26.989Z,100914.31
2023-03-31T01:51:02.339Z,100902.34
2023-03-31T01:54:11.898Z,100898.22
2023-03-31T01:56:46.255Z,100898.47
2023-03-31T01:59:27.413Z,100889.22
2023-03-31T02:02:21.131Z,100879.41
2023-03-31T02:04:54.152Z,100868.47
2023-03-31T02:07:36.658Z,100863.47
2023-03-31T02:10:09.458Z,100868.63
2023-03-31T02:12:41.184Z,100871.28
2023-03-31T02:15:14.857Z,100862.25
2023-03-31T02:17:46.423Z,100862.16
2023-03-31T02:20:18.502Z,100857.00
2023-03-31T02:22:51.148Z,100848.16
2023-03-31T02:25:23.598Z,100856.75
2023-03-31T02:28:08.855Z,100853.72
2023-03-31T02:30:54.366Z,100860.41
2023-03-31T02:33:22.414Z,100858.13
2023-03-31T02:35:50.725Z,100862.22
2023-03-31T02:38:18.789Z,100858.00
2023-03-31T02:40:46.971Z,100855.19
2023-03-31T02:43:14.988Z,100857.25
2023-03-31T02:45:46.001Z,100851.56
2023-03-31T02:48:19.479Z,100848.03
2023-03-31T02:51:07.806Z,100853.88
2023-03-31T02:53:36.840Z,100858.84
2023-03-31T02:56:36.660Z,100853.03
2023-03-31T02:59:25.264Z,100862.22
2023-03-31T03:02:08.637Z,100859.06
2023-03-31T03:04:45.870Z,100869.34
2023-03-31T03:07:56.121Z,100860.59
2023-03-31T03:11:02.630Z,100852.00
2023-03-31T03:14:15.991Z,100851.91
2023-03-31T03:16:49.295Z,100855.53
2023-03-31T03:19:24.029Z,100845.44
2023-03-31T03:21:51.865Z,100839.06
2023-03-31T03:24:19.932Z,100836.03
2023-03-31T03:26:48.320Z,100832.69
2023-03-31T03:29:16.182Z,100827.34
2023-03-31T03:31:44.145Z,100812.63
2023-03-31T03:34:12.848Z,100824.09
2023-03-31T03:36:40.944Z,100835.25
2023-03-31T03:39:08.832Z,100832.53
2023-03-31T03:41:36.936Z,100817.66
2023-03-31T03:44:05.493Z,100807.69
2023-03-31T03:46:33.482Z,100811.22
2023-03-31T03:49:01.514Z,100812.69
2023-03-31T03:51:29.472Z,100812.56
2023-03-31T03:53:57.333Z,100807.06
2023-03-31T03:56:26.601Z,100804.16
2023-03-31T03:58:54.673Z,100796.94
2023-03-31T04:01:22.859Z,100784.94
2023-03-31T04:03:51.008Z,100793.38
2023-03-31T04:06:19.060Z,100794.50
2023-03-31T04:08:47.189Z,100807.25
2023-03-31T04:11:19.982Z,100802.88
2023-03-31T04:13:48.273Z,100803.03
2023-03-31T04:16:17.036Z,100802.88
2023-03-31T04:18:45.321Z,100804.50
2023-03-31T04:21:23.332Z,100804.94
2023-03-31T04:24:01.972Z,100807.25
2023-03-31T04:26:43.569Z,100806.50
2023-03-31T04:29:22.709Z,100797.25
2023-03-31T04:31:53.021Z,100789.38
2023-03-31T04:34:22.394Z,100798.66
2023-03-31T04:36:50.331Z,100792.75
2023-03-31T04:39:30.917Z,100792.81
2023-03-31T04:42:00.316Z,100783.47
2023-03-31T04:44:28.536Z,100772.06
2023-03-31T04:46:59.252Z,100771.81
2023-03-31T04:49:28.615Z,100761.16
2023-03-31T04:51:56.451Z,100770.75
2023-03-31T04:54:24.294Z,100780.16
2023-03-31T04:56:52.212Z,100789.28
2023-03-31T04:59:20.055Z,100781.38
2023-03-31T05:01:48.337Z,100783.94
2023-03-31T05:04:16.205Z,100797.63
2023-03-31T05:06:43.967Z,100809.59
2023-03-31T05:09:11.812Z,100791.41
2023-03-31T05:11:39.876Z,100778.63
2023-03-31T05:14:07.832Z,100766.50
2023-03-31T05:16:36.215Z,100776.47
2023-03-31T05:19:04.192Z,100775.47
2023-03-31T05:21:32.126Z,100771.03
2023-03-31T05:24:00.384Z,100767.06
2023-03-31T05:26:28.184Z,100771.94
2023-03-31T05:28:56.017Z,100763.63
2023-03-31T05:31:24.137Z,100754.28
2023-03-31T05:33:52.116Z,100746.91
2023-03-31T05:36:20.133Z,100749.38
2023-03-31T05:38:48.056Z,100750.88
2023-03-31T05:41:17.175Z,100750.25
2023-03-31T05:43:45.153Z,100762.56
2023-03-31T05:46:13.017Z,100758.28
2023-03-31T05:48:41.531Z,100762.19
2023-03-31T05:51:09.334Z,100764.78
2023-03-31T05:53:37.168Z,100764.78
2023-03-31T05:56:07.311Z,100760.75
2023-03-31T05:58:36.774Z,100766.56
2023-03-31T06:01:16.419Z,100747.09
2023-03-31T06:03:47.006Z,100742.09
2023-03-31T06:06:16.634Z,100743.22
2023-03-31T06:08:46.050Z,100747.44
2023-03-31T06:11:16.883Z,100735.03
2023-03-31T06:13:45.063Z,100742.94
2023-03-31T06:16:14.514Z,100740.72
2023-03-31T06:18:42.851Z,100739.94
2023-03-31T06:21:19.333Z,100732.72
2023-03-31T06:23:47.336Z,100741.00
2023-03-31T06:26:17.437Z,100732.56
2023-03-31T06:28:46.688Z,100731.19
2023-03-31T06:31:20.894Z,100719.22
2023-03-31T06:33:49.242Z,100717.84
2023-03-31T06:36:19.416Z,100708.75
2023-03-31T06:38:47.958Z,100697.00
2023-03-31T06:41:17.658Z,100690.03
2023-03-31T06:43:45.569Z,100705.59
2023-03-31T06:46:14.212Z,100695.09
2023-03-31T06:48:42.180Z,100695.25
2023-03-31T06:51:10.474Z,100698.50
2023-03-31T06:53:38.278Z,100688.78
2023-03-31T06:56:07.033Z,100687.66
2023-03-31T06:58:35.042Z,100686.81
2023-03-31T07:01:05.621Z,100687.81
2023-03-31T07:03:34.591Z,100689.94
2023-03-31T07:06:02.724Z,100689.94
2023-03-31T07:08:30.585Z,100688.44
2023-03-31T07:11:01.027Z,100673.28
2023-03-31T07:13:29.234Z,100666.13
2023-03-31T07:15:57.585Z,100664.59
2023-03-31T07:18:34.883Z,100665.97
2023-03-31T07:21:06.548Z,100664.00
2023-03-31T07:23:36.155Z,100671.13
2023-03-31T07:26:04.260Z,100669.19
2023-03-31T07:28:33.055Z,100675.81
2023-03-31T07:31:00.887Z,100669.91
2023-03-31T07:33:28.780Z,100658.00
2023-03-31T07:36:08.329Z,100668.41
2023-03-31T07:38:39.948Z,100667.56
2023-03-31T07:41:12.219Z,100660.69
2023-03-31T07:43:40.298Z,100651.69
2023-03-31T07:46:24.336Z,100670.09
2023-03-31T07:48:52.840Z,100662.66
2023-03-31T07:51:23.418Z,100660.97
2023-03-31T07:53:52.838Z,100647.88
2023-03-31T07:56:23.834Z,100653.53
2023-03-31T07:58:55.204Z,100643.44
2023-03-31T08:01:29.040Z,100639.50
2023-03-31T08:03:57.516Z,100635.00
2023-03-31T08:06:26.797Z,100647.66
2023-03-31T08:08:54.778Z,100653.13
2023-03-31T08:11:22.709Z,100653.84
2023-03-31T08:13:50.744Z,100656.06
2023-03-31T08:16:19.273Z,100653.00
2023-03-31T08:18:47.184Z,100649.03
2023-03-31T08:21:15.477Z,100650.34
2023-03-31T08:23:43.350Z,100646.09
2023-03-31T08:26:20.149Z,100639.50
2023-03-31T08:28:49.490Z,100631.03
2023-03-31T08:31:19.555Z,100634.41
2023-03-31T08:33:48.285Z,100624.59
2023-03-31T08:36:16.584Z,100639.66
2023-03-31T08:38:49.829Z,100636.94
2023-03-31T08:41:37.933Z,100637.38
2023-03-31T08:44:14.600Z,100619.22
2023-03-31T08:46:43.631Z,100615.03
2023-03-31T08:49:16.903Z,100613.84
2023-03-31T08:51:49.500Z,100608.22
2023-03-31T08:54:52.913Z,100597.25
2023-03-31T08:57:38.666Z,100590.91
2023-03-31T09:00:13.758Z,100607.72
2023-03-31T09:02:57.103Z,100627.50
2023-03-31T09:05:59.399Z,100636.97
2023-03-31T09:08:42.241Z,100626.69
2023-03-31T09:11:30.089Z,100633.28
2023-03-31T09:14:30.670Z,100635.72
2023-03-31T09:17:22.154Z,100636.66
2023-03-31T09:19:49.897Z,100625.81
2023-03-31T09:22:28.033Z,100607.00
2023-03-31T09:25:10.899Z,100595.19
2023-03-31T09:27:42.762Z,100586.34
2023-03-31T09:30:36.841Z,100569.38
2023-03-31T09:33:11.645Z,100562.28
2023-03-31T09:35:39.647Z,100573.47
2023-03-31T09:38:10.502Z,100564.69
2023-03-31T09:40:39.043Z,100566.94
2023-03-31T09:43:13.852Z,100560.63
2023-03-31T09:45:42.012Z,100557.56
2023-03-31T09:48:18.598Z,100563.00
2023-03-31T09:50:52.126Z,100570.19
2023-03-31T09:53:46.389Z,100560.28
2023-03-31T09:56:31.885Z,100551.94
2023-03-31T09:59:04.139Z,100533.75
2023-03-31T10:01:32.710Z,100542.56
2023-03-31T10:04:03.201Z,100524.31
2023-03-31T10:06:31.742Z,100514.50
2023-03-31T10:09:05.723Z,100514.56
2023-03-31T10:11:33.808Z,100514.09
2023-03-31T10:14:05.371Z,100503.78
2023-03-31T10:16:43.397Z,100501.47
2023-03-31T10:19:18.810Z,100490.72
2023-03-31T10:21:48.745Z,100494.19
2023-03-31T10:24:20.160Z,100489.66
2023-03-31T10:26:55.227Z,100495.78
2023-03-31T10:29:33.061Z,100490.34
2023-03-31T10:32:29.439Z,100482.25
2023-03-31T10:34:59.841Z,100488.78
2023-03-31T10:37:30.238Z,100492.16
2023-03-31T10:40:06.096Z,100490.66
2023-03-31T10:42:34.138Z,100488.44
2023-03-31T10:45:36.381Z,100486.81
2023-03-31T10:48:17.319Z,100487.69
2023-03-31T10:50:45.384Z,100480.03
2023-03-31T10:53:16.379Z,100477.44
2023-03-31T10:56:06.616Z,100473.84
2023-03-31T10:59:10.488Z,100465.88
2023-03-31T11:01:38.254Z,100452.47
2023-03-31T11:04:43.531Z,100439.47
2023-03-31T11:07:49.667Z,100419.84
2023-03-31T11:10:51.743Z,100409.88
2023-03-31T11:13:47.146Z,100402.06
2023-03-31T11:16:40.273Z,100391.69
2023-03-31T11:19:24.134Z,100387.84
2023-03-31T11:22:27.300Z,100377.78
2023-03-31T11:24:55.236Z,100367.00
2023-03-31T11:27:41.343Z,100355.25
2023-03-31T11:30:35.082Z,100353.97
2023-03-31T11:33:29.449Z,100357.66
2023-03-31T11:36:20.191Z,100345.00
2023-03-31T11:39:15.476Z,100327.03
2023-03-31T11:42:09.821Z,100324.06
2023-03-31T11:44:53.426Z,100299.59
2023-03-31T11:47:29.234Z,100298.84
2023-03-31T11:50:10.920Z,100289.63
2023-03-31T11:52:57.411Z,100280.63
2023-03-31T11:55:28.803Z,100280.00
2023-03-31T11:58:04.616Z,100279.75
2023-03-31T12:00:38.706Z,100263.34
2023-03-31T12:03:13.528Z,100257.72
2023-03-31T12:05:46.883Z,100254.84
2023-03-31T12:08:43.923Z,100242.06
2023-03-31T12:11:28.158Z,100247.59
2023-03-31T12:14:34.630Z,100245.75
2023-03-31T12:17:11.795Z,100247.53
2023-03-31T12:20:02.461Z,100242.47
2023-03-31T12:22:36.925Z,100236.91
2023-03-31T12:25:05.717Z,100219.63
2023-03-31T12:27:42.165Z,100210.28
2023-03-31T12:30:35.039Z,100218.00
2023-03-31T12:33:11.585Z,100199.72
2023-03-31T12:35:55.650Z,100195.44
2023-03-31T12:38:52.449Z,100200.41
2023-03-31T12:41:42.961Z,100184.16
2023-03-31T12:44:16.729Z,100177.00
2023-03-31T12:47:18.791Z,100179.06
2023-03-31T12:50:12.079Z,100171.78
2023-03-31T12:52:46.581Z,100164.00
2023-03-31T12:55:43.427Z,100164.25
2023-03-31T12:58:23.337Z,100158.25
2023-03-31T13:01:35.291Z,100156.63
2023-03-31T13:04:21.730Z,100137.13
2023-03-31T13:06:57.982Z,100132.94
2023-03-31T13:09:31.832Z,100129.03
2023-03-31T13:12:07.882Z,100120.88
2023-03-31T13:14:41.123Z,100115.28
2023-03-31T13:17:24.855Z,100114.47
2023-03-31T13:19:55.212Z,100097.50
2023-03-31T13:22:38.013Z,100094.69
2023-03-31T13:25:31.195Z,100088.75
2023-03-31T13:28:15.274Z,100091.19
2023-03-31T13:30:43.131Z,100085.50
2023-03-31T13:33:15.912Z,100095.34
2023-03-31T13:35:55.464Z,100079.31
2023-03-31T13:39:04.070Z,100081.91
2023-03-31T13:41:53.925Z,100077.94
2023-03-31T13:44:40.425Z,100058.00
2023-03-31T13:47:36.134Z,100049.38
2023-03-31T13:50:35.036Z,100047.91
2023-03-31T13:53:40.612Z,100031.84
2023-03-31T13:56:27.199Z,100037.84
2023-03-31T13:59:31.995Z,100034.78
2023-03-31T14:02:15.067Z,100024.00
2023-03-31T14:05:09.429Z,100023.75
2023-03-31T14:08:01.553Z,100027.00
2023-03-31T14:10:33.712Z,100022.09
2023-03-31T14:13:18.671Z,100022.22
2023-03-31T14:15:54.430Z,100004.50
2023-03-31T14:18:28.764Z,99998.94
2023-03-31T14:21:03.627Z,99995.31
2023-03-31T14:23:44.954Z,99987.09
2023-03-31T14:26:50.392Z,99980.22
2023-03-31T14:29:44.235Z,99979.78
2023-03-31T14:32:15.086Z,99978.97
2023-03-31T14:34:45.758Z,99973.72
2023-03-31T14:37:18.251Z,99968.09
2023-03-31T14:39:55.219Z,99960.28
2023-03-31T14:42:41.501Z,99945.84
2023-03-31T14:45:25.378Z,99941.34
2023-03-31T14:48:12.121Z,99932.50
2023-03-31T14:50:44.636Z,99920.97
2023-03-31T14:53:17.711Z,99919.13
2023-03-31T14:55:58.110Z,99923.69
2023-03-31T14:58:35.313Z,99915.06
2023-03-31T15:01:07.109Z,99921.19
2023-03-31T15:03:41.789Z,99907.84
2023-03-31T15:06:11.535Z,99899.41
2023-03-31T15:08:39.952Z,99896.16
2023-03-31T15:11:19.183Z,99893.06
2023-03-31T15:14:03.390Z,99875.00
2023-03-31T15:16:35.625Z,99885.00
2023-03-31T15:19:14.201Z,99869.53
2023-03-31T15:21:42.372Z,99870.41
2023-03-31T15:24:21.595Z,99878.66
2023-03-31T15:26:55.155Z,99886.53
2023-03-31T15:29:37.254Z,99898.34
2023-03-31T15:32:13.777Z,99889.47
2023-03-31T15:34:43.902Z,99889.66
2023-03-31T15:37:12.274Z,99894.28
2023-03-31T15:39:46.388Z,99882.00
2023-03-31T15:42:14.523Z,99881.66
2023-03-31T15:45:23.606Z,99881.03
2023-03-31T15:47:55.397Z,99878.25
2023-03-31T15:50:24.971Z,99879.03
2023-03-31T15:52:55.899Z,99872.41
2023-03-31T15:55:23.809Z,99875.22
2023-03-31T15:57:54.725Z,99871.81
2023-03-31T16:00:34.487Z,99880.47
2023-03-31T16:03:05.880Z,99877.38
2023-03-31T16:06:01.105Z,99876.56
2023-03-31T16:08:38.243Z,99878.22
2023-03-31T16:11:13.656Z,99867.13
2023-03-31T16:13:46.067Z,99867.91
2023-03-31T16:16:18.058Z,99866.63
2023-03-31T16:18:51.256Z,99869.56
2023-03-31T16:21:22.476Z,99866.25
2023-03-31T16:23:56.578Z,99866.38
2023-03-31T16:26:28.027Z,99870.28
2023-03-31T16:28:57.843Z,99867.44
2023-03-31T16:31:34.649Z,99866.00
2023-03-31T16:34:05.003Z,99861.97
2023-03-31T16:36:33.218Z,99854.41
2023-03-31T16:39:05.227Z,99858.47
2023-03-31T16:41:34.765Z,99854.56
2023-03-31T16:44:03.011Z,99849.28
2023-03-31T16:46:30.946Z,99838.66
2023-03-31T16:48:58.897Z,99849.50
2023-03-31T16:51:26.780Z,99860.88
2023-03-31T16:53:56.781Z,99839.63
2023-03-31T16:56:27.304Z,99833.28
2023-03-31T16:58:55.270Z,99827.66
2023-03-31T17:01:23.279Z,99806.34
2023-03-31T17:03:51.618Z,99808.19
2023-03-31T17:06:19.458Z,99805.09
2023-03-31T17:08:47.676Z,99795.56
2023-03-31T17:11:16.182Z,99790.63
2023-03-31T17:13:44.967Z,99790.63
2023-03-31T17:16:22.020Z,99780.19
2023-03-31T17:18:54.809Z,99791.81
2023-03-31T17:21:23.859Z,99797.38
2023-03-31T17:23:51.802Z,99800.16
2023-03-31T17:26:19.662Z,99799.50
2023-03-31T17:28:47.528Z,99797.13
2023-03-31T17:31:18.230Z,99793.91
2023-03-31T17:33:46.866Z,99782.00
2023-03-31T17:36:15.887Z,99797.44
2023-03-31T17:38:45.252Z,99786.94
2023-03-31T17:41:14.340Z,99780.84
2023-03-31T17:43:47.180Z,99784.34
2023-03-31T17:46:15.742Z,99781.34
2023-03-31T17:48:44.941Z,99786.88
2023-03-31T17:51:15.944Z,99770.97
2023-03-31T17:53:45.829Z,99776.19
2023-03-31T17:56:15.689Z,99774.19
2023-03-31T17:58:43.904Z,99774.75
2023-03-31T18:01:12.867Z,99778.94
2023-03-31T18:03:41.424Z,99781.47
2023-03-31T18:06:11.907Z,99792.03
2023-03-31T18:08:41.946Z,99794.53
2023-03-31T18:11:13.475Z,99787.00
2023-03-31T18:13:41.823Z,99791.72
2023-03-31T18:16:11.188Z,99803.41
2023-03-31T18:18:39.639Z,99808.06
2023-03-31T18:21:10.441Z,99799.41
2023-03-31T18:23:38.504Z,99795.56
2023-03-31T18:26:11.608Z,99796.38
2023-03-31T18:28:41.065Z,99806.09
2023-03-31T18:31:10.215Z,99808.06
2023-03-31T18:33:39.013Z,99810.44
2023-03-31T18:36:14.398Z,99806.94
2023-03-31T18:38:42.901Z,99799.06
2023-03-31T18:41:12.849Z,99804.44
2023-03-31T18:43:41.446Z,99810.13
2023-03-31T18:46:11.134Z,99813.13
2023-03-31T18:48:39.431Z,99807.94
2023-03-31T18:51:07.424Z,99800.13
2023-03-31T18:53:36.184Z,99797.78
2023-03-31T18:56:04.650Z,99793.25
2023-03-31T18:58:32.654Z,99795.06
2023-03-31T19:01:03.628Z,99796.59
2023-03-31T19:03:31.639Z,99790.53
2023-03-31T19:06:12.129Z,99796.88
2023-03-31T19:08:40.716Z,99803.06
2023-03-31T19:11:14.032Z,99792.69
2023-03-31T19:13:43.302Z,99791.03
2023-03-31T19:16:12.754Z,99793.72
2023-03-31T19:18:41.452Z,99786.03
2023-03-31T19:21:10.615Z,99782.72
2023-03-31T19:23:38.886Z,99784.69
2023-03-31T19:26:07.460Z,99775.66
2023-03-31T19:28:35.413Z,99778.50
2023-03-31T19:31:04.952Z,99770.81
2023-03-31T19:33:33.056Z,99772.34
2023-03-31T19:36:01.035Z,99775.88
2023-03-31T19:38:32.384Z,99777.19
2023-03-31T19:41:00.451Z,99782.00
2023-03-31T19:43:29.600Z,99785.69
2023-03-31T19:45:59.937Z,99768.31
2023-03-31T19:48:30.447Z,99769.78
2023-03-31T19:51:00.827Z,99758.25
2023-03-31T19:53:28.855Z,99756.28
2023-03-31T19:56:04.376Z,99771.16
2023-03-31T19:58:35.380Z,99769.31
2023-03-31T20:01:06.811Z,99768.75
2023-03-31T20:03:35.294Z,99762.59
2023-03-31T20:06:05.020Z,99759.53
2023-03-31T20:08:34.571Z,99760.03
2023-03-31T20:11:08.054Z,99754.13
2023-03-31T20:13:36.322Z,99752.78
2023-03-31T20:16:08.014Z,99754.13
2023-03-31T20:18:37.304Z,99745.78
2023-03-31T20:21:15.790Z,99747.81
2023-03-31T20:23:45.069Z,99727.94
2023-03-31T20:26:16.092Z,99738.81
2023-03-31T20:28:45.158Z,99736.44
2023-03-31T20:31:16.198Z,99747.78
2023-03-31T20:33:46.236Z,99756.47
2023-03-31T20:36:16.718Z,99744.47
2023-03-31T20:38:46.592Z,99746.81
2023-03-31T20:41:15.898Z,99733.78
2023-03-31T20:43:44.134Z,99733.69
2023-03-31T20:46:12.502Z,99735.63
2023-03-31T20:48:43.152Z,99742.34
2023-03-31T20:51:12.899Z,99743.13
2023-03-31T20:53:47.806Z,99743.31
2023-03-31T20:56:18.761Z,99742.75
2023-03-31T20:58:51.037Z,99744.06
2023-03-31T21:01:19.593Z,99742.44
2023-03-31T21:03:48.080Z,99749.28
2023-03-31T21:06:16.697Z,99749.63
2023-03-31T21:08:46.825Z,99751.19
2023-03-31T21:11:14.739Z,99747.56
2023-03-31T21:13:45.168Z,99753.44
2023-03-31T21:16:13.053Z,99755.59
2023-03-31T21:18:41.211Z,99746.63
2023-03-31T21:21:16.052Z,99749.72
2023-03-31T21:23:43.891Z,99735.88
2023-03-31T21:26:15.877Z,99735.25
2023-03-31T21:28:44.433Z,99722.06
2023-03-31T21:31:18.243Z,99724.16
2023-03-31T21:33:47.290Z,99713.94
2023-03-31T21:36:18.724Z,99707.25
2023-03-31T21:38:46.999Z,99713.22
2023-03-31T21:41:20.995Z,99707.56
2023-03-31T21:43:49.214Z,99702.84
2023-03-31T21:46:21.064Z,99699.47
2023-03-31T21:48:49.931Z,99687.09
2023-03-31T21:51:22.122Z,99677.47
2023-03-31T21:53:53.438Z,99678.38
2023-03-31T21:56:23.269Z,99670.69
2023-03-31T21:58:51.436Z,99672.31
2023-03-31T22:01:20.795Z,99664.97
2023-03-31T22:03:49.221Z,99672.44
2023-03-31T22:06:17.122Z,99673.72
2023-03-31T22:08:45.775Z,99672.81
2023-03-31T22:11:14.723Z,99673.28
2023-03-31T22:13:43.382Z,99669.59
2023-03-31T22:16:20.840Z,99666.81
2023-03-31T22:18:50.513Z,99672.19
2023-03-31T22:21:26.218Z,99659.88
2023-03-31T22:23:56.776Z,99674.28
2023-03-31T22:26:27.323Z,99674.06
2023-03-31T22:28:56.894Z,99675.66
2023-03-31T22:31:27.171Z,99672.75
2023-03-31T22:33:55.118Z,99671.78
2023-03-31T22:36:23.068Z,99678.84
2023-03-31T22:38:51.116Z,99679.81
2023-03-31T22:41:19.081Z,99683.84
2023-03-31T22:43:46.967Z,99678.31
2023-03-31T22:46:15.272Z,99684.69
2023-03-31T22:48:44.280Z,99686.84
2023-03-31T22:51:12.501Z,99690.13
2023-03-31T22:53:40.662Z,99691.47
2023-03-31T22:56:12.123Z,99692.06
2023-03-31T22:58:40.124Z,99687.81
2023-03-31T23:01:10.131Z,99685.88
2023-03-31T23:03:38.223Z,99678.81
2023-03-31T23:06:06.753Z,99685.66
2023-03-31T23:08:36.016Z,99685.22
2023-03-31T23:11:06.556Z,99674.66
2023-03-31T23:13:34.917Z,99679.19
2023-03-31T23:16:07.763Z,99668.94
2023-03-31T23:18:36.437Z,99676.31
2023-03-31T23:21:06.337Z,99674.66
2023-03-31T23:23:34.393Z,99676.47
2023-03-31T23:26:04.495Z,99667.09
2023-03-31T23:28:34.808Z,99652.13
2023-03-31T23:31:03.460Z,99664.44
2023-03-31T23:33:31.608Z,99653.88
2023-03-31T23:36:05.002Z,99659.38
2023-03-31T23:38:33.056Z,99663.06
2023-03-31T23:41:01.936Z,99648.72
2023-03-31T23:43:30.467Z,99647.88
2023-03-31T23:45:58.474Z,99651.53
2023-03-31T23:48:26.680Z,99644.53
2023-03-31T23:50:54.576Z,99647.28
2023-03-31T23:53:22.781Z,99632.22
2023-03-31T23:56:05.455Z,99639.22
2023-03-31T23:58:33.996Z,99636.25
